createdAt,value
2022-12-28T00:01:52.429Z,2.33
2022-12-28T00:04:19.994Z,2.31
2022-12-28T00:06:47.861Z,2.25
2022-12-28T00:09:15.354Z,2.29
2022-12-28T00:11:43.119Z,2.14
2022-12-28T00:14:10.621Z,2.13
2022-12-28T00:16:41.594Z,2.06
2022-12-28T00:19:14.714Z,1.99
2022-12-28T00:21:46.070Z,1.88
2022-12-28T00:24:23.146Z,1.80
2022-12-28T00:26:51.080Z,1.81
2022-12-28T00:29:19.393Z,1.80
2022-12-28T00:31:47.155Z,1.77
2022-12-28T00:34:14.833Z,1.75
2022-12-28T00:37:09.482Z,1.77
2022-12-28T00:39:30.218Z,1.77
2022-12-28T00:41:57.676Z,1.80
2022-12-28T00:44:25.239Z,1.81
2022-12-28T00:46:52.726Z,1.83
2022-12-28T00:49:20.215Z,1.86
2022-12-28T00:51:47.720Z,1.85
2022-12-28T00:54:15.276Z,1.82
2022-12-28T00:56:46.499Z,1.84
2022-12-28T00:59:15.382Z,1.84
2022-12-28T01:01:43.058Z,1.91
2022-12-28T01:04:10.715Z,1.89
2022-12-28T01:06:38.300Z,1.88
2022-12-28T01:09:06.086Z,1.90
2022-12-28T01:11:33.604Z,1.92
2022-12-28T01:14:02.928Z,1.90
2022-12-28T01:16:34.237Z,1.83
2022-12-28T01:19:04.884Z,1.89
2022-12-28T01:21:34.732Z,1.83
2022-12-28T01:24:08.052Z,1.77
2022-12-28T01:26:36.141Z,1.79
2022-12-28T01:29:03.860Z,1.76
2022-12-28T01:31:33.002Z,1.71
2022-12-28T01:34:01.505Z,1.69
2022-12-28T01:36:31.781Z,1.67
2022-12-28T01:39:01.769Z,1.68
2022-12-28T01:41:33.603Z,1.66
2022-12-28T01:44:01.126Z,1.58
2022-12-28T01:46:42.620Z,1.54
2022-12-28T01:49:14.060Z,1.49
2022-12-28T01:52:00.474Z,1.49
2022-12-28T01:54:33.471Z,1.45
2022-12-28T01:57:01.285Z,1.42
2022-12-28T01:59:33.686Z,1.39
2022-12-28T02:02:01.458Z,1.39
2022-12-28T02:04:29.310Z,1.38
2022-12-28T02:06:57.163Z,1.43
2022-12-28T02:09:33.370Z,1.48
2022-12-28T02:12:01.395Z,1.45
2022-12-28T02:14:29.701Z,1.45
2022-12-28T02:16:57.345Z,1.41
2022-12-28T02:19:47.801Z,1.37
2022-12-28T02:22:31.441Z,1.30
2022-12-28T02:25:23.191Z,1.25
2022-12-28T02:28:19.704Z,1.21
2022-12-28T02:30:54.746Z,1.27
2022-12-28T02:33:35.871Z,1.25
2022-12-28T02:36:18.281Z,1.30
2022-12-28T02:39:03.716Z,1.28
2022-12-28T02:41:33.892Z,1.27
2022-12-28T02:44:02.000Z,1.22
2022-12-28T02:46:52.490Z,1.08
2022-12-28T02:49:41.231Z,1.00
2022-12-28T02:52:23.711Z,0.96
2022-12-28T02:55:15.991Z,0.94
2022-12-28T02:58:02.594Z,0.97
2022-12-28T03:00:43.752Z,1.01
2022-12-28T03:03:26.304Z,1.07
2022-12-28T03:06:31.773Z,1.13
2022-12-28T03:09:13.439Z,1.19
2022-12-28T03:11:59.236Z,1.28
2022-12-28T03:14:41.119Z,1.29
2022-12-28T03:17:28.818Z,1.36
2022-12-28T03:20:18.371Z,1.37
2022-12-28T03:23:04.440Z,1.49
2022-12-28T03:25:56.043Z,1.60
2022-12-28T03:28:51.279Z,1.66
2022-12-28T03:31:24.320Z,1.73
2022-12-28T03:34:09.084Z,1.79
2022-12-28T03:37:00.752Z,1.90
2022-12-28T03:39:38.062Z,2.07
2022-12-28T03:42:44.807Z,2.08
2022-12-28T03:45:46.014Z,2.12
2022-12-28T03:48:18.104Z,2.10
2022-12-28T03:50:48.708Z,2.08
2022-12-28T03:53:21.901Z,2.01
2022-12-28T03:55:52.686Z,2.08
2022-12-28T03:58:22.092Z,2.02
2022-12-28T04:00:50.663Z,2.01
2022-12-28T04:03:21.086Z,1.98
2022-12-28T04:05:48.702Z,1.92
2022-12-28T04:08:16.579Z,1.91
2022-12-28T04:10:44.224Z,1.93
2022-12-28T04:13:11.848Z,1.89
2022-12-28T04:16:03.259Z,1.86
2022-12-28T04:18:33.654Z,1.87
2022-12-28T04:21:01.938Z,1.91
2022-12-28T04:23:31.131Z,1.88
2022-12-28T04:26:20.836Z,1.92
2022-12-28T04:28:51.075Z,1.89
2022-12-28T04:31:21.427Z,1.89
2022-12-28T04:33:57.525Z,1.88
2022-12-28T04:36:25.820Z,1.81
2022-12-28T04:38:53.292Z,1.86
2022-12-28T04:41:20.875Z,1.89
2022-12-28T04:43:48.394Z,1.89
2022-12-28T04:46:17.484Z,1.91
2022-12-28T04:48:45.133Z,1.92
2022-12-28T04:51:20.034Z,1.95
2022-12-28T04:53:47.569Z,1.93
2022-12-28T04:56:16.670Z,1.97
2022-12-28T04:58:44.701Z,2.05
2022-12-28T05:01:15.484Z,2.06
2022-12-28T05:03:48.265Z,2.06
2022-12-28T05:06:23.229Z,2.16
2022-12-28T05:08:51.024Z,2.20
2022-12-28T05:11:26.753Z,2.18
2022-12-28T05:13:54.374Z,2.18
2022-12-28T05:16:24.832Z,2.24
2022-12-28T05:18:52.541Z,2.26
2022-12-28T05:25:33.100Z,2.23
2022-12-28T05:28:00.683Z,2.26
2022-12-28T05:30:28.120Z,2.39
2022-12-28T05:32:55.570Z,2.48
2022-12-28T05:35:22.990Z,2.56
2022-12-28T05:37:50.482Z,2.64
2022-12-28T05:40:17.964Z,2.66
2022-12-28T05:42:51.210Z,2.71
2022-12-28T05:45:19.305Z,2.69
2022-12-28T05:47:46.921Z,2.73
2022-12-28T05:50:14.435Z,2.75
2022-12-28T05:52:42.026Z,2.84
2022-12-28T05:55:09.931Z,2.86
2022-12-28T05:57:37.559Z,2.88
2022-12-28T06:00:06.025Z,2.90
2022-12-28T06:02:39.347Z,2.86
2022-12-28T06:05:07.617Z,2.86
2022-12-28T06:07:35.038Z,2.89
2022-12-28T06:10:02.549Z,2.94
2022-12-28T06:12:29.954Z,3.01
2022-12-28T06:14:57.548Z,3.08
2022-12-28T06:17:24.961Z,3.16
2022-12-28T06:19:52.475Z,3.24
2022-12-28T06:22:19.879Z,3.24
2022-12-28T06:24:47.457Z,3.32
2022-12-28T06:27:14.917Z,3.35
2022-12-28T06:29:42.352Z,3.29
2022-12-28T06:32:09.862Z,3.29
2022-12-28T06:34:37.394Z,3.26
2022-12-28T06:37:04.863Z,3.29
2022-12-28T06:39:32.331Z,3.37
2022-12-28T06:41:59.808Z,3.38
2022-12-28T06:44:27.254Z,3.39
2022-12-28T06:46:54.663Z,3.40
2022-12-28T06:49:22.211Z,3.40
2022-12-28T06:51:49.677Z,3.35
2022-12-28T06:54:17.173Z,3.38
2022-12-28T06:56:44.542Z,3.39
2022-12-28T06:59:12.175Z,3.36
2022-12-28T07:01:41.585Z,3.36
2022-12-28T07:04:10.351Z,3.34
2022-12-28T07:06:43.789Z,3.36
2022-12-28T07:09:14.579Z,3.35
2022-12-28T07:11:42.922Z,3.37
2022-12-28T07:14:10.728Z,3.36
2022-12-28T07:19:04.767Z,3.48
2022-12-28T07:21:35.566Z,3.51
2022-12-28T07:24:04.810Z,3.46
2022-12-28T07:26:34.505Z,3.46
2022-12-28T07:29:04.240Z,3.45
2022-12-28T07:31:44.095Z,3.51
2022-12-28T07:34:15.020Z,3.57
2022-12-28T07:36:42.570Z,3.67
2022-12-28T07:39:10.616Z,3.63
2022-12-28T07:41:38.333Z,3.61
2022-12-28T07:44:06.809Z,3.61
2022-12-28T07:46:35.806Z,3.53
2022-12-28T07:49:04.202Z,3.55
2022-12-28T07:51:35.196Z,3.57
2022-12-28T07:54:04.638Z,3.61
2022-12-28T07:59:01.665Z,3.60
2022-12-28T08:01:32.003Z,3.62
2022-12-28T08:04:02.404Z,3.60
2022-12-28T08:06:33.027Z,3.56
2022-12-28T08:09:01.364Z,3.60
2022-12-28T08:11:31.922Z,3.60
2022-12-28T08:14:00.056Z,3.58
2022-12-28T08:16:30.171Z,3.57
2022-12-28T08:18:59.791Z,3.66
2022-12-28T08:21:47.558Z,3.70
2022-12-28T08:24:18.204Z,3.72
2022-12-28T08:26:46.907Z,3.72
2022-12-28T08:29:19.291Z,3.76
2022-12-28T08:31:47.617Z,3.85
2022-12-28T08:34:20.819Z,3.85
2022-12-28T08:36:48.477Z,3.87
2022-12-28T08:39:15.934Z,3.79
2022-12-28T08:41:43.587Z,3.78
2022-12-28T08:44:11.127Z,3.78
2022-12-28T08:46:40.541Z,3.95
2022-12-28T08:49:08.203Z,3.93
2022-12-28T08:51:39.971Z,3.86
2022-12-28T08:54:08.854Z,3.96
2022-12-28T08:56:39.428Z,3.98
2022-12-28T08:59:07.423Z,4.05
2022-12-28T09:01:43.573Z,4.09
2022-12-28T09:04:18.355Z,4.14
2022-12-28T09:06:45.859Z,4.17
2022-12-28T09:09:15.443Z,4.14
2022-12-28T09:11:43.837Z,4.13
2022-12-28T09:14:20.309Z,4.23
2022-12-28T09:16:51.595Z,4.37
2022-12-28T09:19:19.185Z,4.50
2022-12-28T09:21:49.336Z,4.52
2022-12-28T09:24:17.092Z,4.58
2022-12-28T09:26:45.019Z,4.60
2022-12-28T09:29:14.025Z,4.67
2022-12-28T09:31:42.218Z,4.77
2022-12-28T09:37:00.952Z,4.79
2022-12-28T09:39:28.905Z,4.75
2022-12-28T09:41:59.273Z,4.94
2022-12-28T09:44:50.226Z,5.09
2022-12-28T09:47:26.833Z,5.27
2022-12-28T09:50:19.037Z,5.39
2022-12-28T09:53:07.996Z,5.47
2022-12-28T09:55:41.715Z,5.44
2022-12-28T09:58:16.473Z,5.38
2022-12-28T10:00:48.964Z,5.45
2022-12-28T10:03:20.538Z,5.51
2022-12-28T10:05:48.467Z,5.61
2022-12-28T10:08:19.173Z,5.74
2022-12-28T10:10:49.165Z,5.89
2022-12-28T10:13:53.511Z,6.11
2022-12-28T10:16:20.847Z,6.24
2022-12-28T10:18:49.227Z,6.35
2022-12-28T10:21:20.464Z,6.51
2022-12-28T10:24:29.195Z,6.53
2022-12-28T10:26:43.129Z,6.63
2022-12-28T10:29:18.877Z,6.73
2022-12-28T10:32:00.825Z,6.54
2022-12-28T10:34:34.685Z,6.68
2022-12-28T10:37:15.436Z,6.66
2022-12-28T10:40:20.925Z,6.71
2022-12-28T10:42:52.588Z,6.81
2022-12-28T10:45:24.128Z,6.84
2022-12-28T10:47:54.535Z,6.90
2022-12-28T10:51:02.030Z,7.03
2022-12-28T10:53:51.766Z,7.11
2022-12-28T10:56:29.175Z,7.25
2022-12-28T10:59:12.188Z,7.40
2022-12-28T11:01:41.824Z,7.44
2022-12-28T11:04:27.535Z,7.58
2022-12-28T11:07:02.623Z,7.68
2022-12-28T11:09:35.580Z,7.69
2022-12-28T11:12:24.283Z,7.66
2022-12-28T11:14:53.079Z,7.71
2022-12-28T11:17:23.700Z,7.67
2022-12-28T11:19:55.827Z,7.51
2022-12-28T11:22:29.297Z,7.38
2022-12-28T11:25:00.060Z,7.39
2022-12-28T11:27:28.038Z,7.36
2022-12-28T11:29:55.990Z,7.28
2022-12-28T11:32:27.739Z,7.11
2022-12-28T11:34:57.014Z,7.01
2022-12-28T11:37:24.587Z,7.04
2022-12-28T11:39:53.032Z,7.02
2022-12-28T11:42:41.090Z,6.99
2022-12-28T11:45:13.511Z,7.04
2022-12-28T11:47:41.104Z,7.05
2022-12-28T11:50:33.915Z,7.17
2022-12-28T11:53:06.634Z,7.26
2022-12-28T11:55:50.888Z,7.33
2022-12-28T11:58:30.185Z,7.44
2022-12-28T12:01:00.206Z,7.49
2022-12-28T12:03:58.930Z,7.41
2022-12-28T12:06:41.757Z,7.32
2022-12-28T12:09:21.646Z,7.34
2022-12-28T12:11:54.117Z,7.26
2022-12-28T12:14:39.089Z,7.12
2022-12-28T12:17:33.980Z,6.98
2022-12-28T12:20:27.807Z,6.93
2022-12-28T12:23:09.748Z,6.93
2022-12-28T12:25:42.629Z,6.82
2022-12-28T12:28:34.458Z,6.89
2022-12-28T12:31:04.788Z,6.70
2022-12-28T12:33:36.132Z,6.63
2022-12-28T12:36:19.049Z,6.72
2022-12-28T12:38:49.278Z,6.65
2022-12-28T12:41:24.032Z,6.70
2022-12-28T12:44:19.115Z,6.41
2022-12-28T12:47:24.173Z,6.18
2022-12-28T12:50:20.499Z,6.18
2022-12-28T12:53:14.634Z,6.21
2022-12-28T12:55:57.854Z,6.24
2022-12-28T12:58:45.620Z,6.31
2022-12-28T13:01:24.642Z,6.38
2022-12-28T13:03:55.410Z,6.45
2022-12-28T13:06:30.512Z,6.29
2022-12-28T13:09:05.596Z,6.28
2022-12-28T13:11:38.644Z,6.32
2022-12-28T13:14:06.974Z,6.40
2022-12-28T13:16:34.424Z,6.28
2022-12-28T13:19:07.455Z,6.39
2022-12-28T13:21:51.106Z,6.49
2022-12-28T13:24:30.337Z,6.61
2022-12-28T13:27:00.171Z,6.66
2022-12-28T13:29:40.957Z,6.75
2022-12-28T13:32:31.434Z,6.85
2022-12-28T13:35:01.974Z,6.87
2022-12-28T13:37:29.481Z,6.81
2022-12-28T13:40:15.454Z,6.72
2022-12-28T13:43:03.235Z,6.43
2022-12-28T13:45:30.897Z,6.18
2022-12-28T13:47:58.563Z,5.99
2022-12-28T13:50:33.796Z,5.84
2022-12-28T13:53:06.120Z,5.82
2022-12-28T13:55:46.320Z,5.72
2022-12-28T13:58:36.976Z,5.60
2022-12-28T14:01:09.747Z,5.54
2022-12-28T14:03:41.400Z,5.45
2022-12-28T14:06:16.292Z,5.50
2022-12-28T14:08:44.938Z,5.50
2022-12-28T14:11:13.102Z,5.49
2022-12-28T14:13:40.942Z,5.52
2022-12-28T14:16:09.574Z,5.47
2022-12-28T14:18:37.928Z,5.41
2022-12-28T14:21:06.479Z,5.39
2022-12-28T14:23:36.586Z,5.37
2022-12-28T14:26:08.014Z,5.28
2022-12-28T14:28:44.218Z,5.24
2022-12-28T14:31:19.698Z,5.29
2022-12-28T14:33:59.337Z,5.26
2022-12-28T14:36:30.725Z,5.29
2022-12-28T14:39:04.707Z,5.22
2022-12-28T14:41:40.475Z,5.20
2022-12-28T14:44:17.647Z,5.19
2022-12-28T14:46:45.524Z,5.22
2022-12-28T14:49:33.582Z,5.16
2022-12-28T14:52:09.944Z,5.15
2022-12-28T14:54:51.561Z,5.15
2022-12-28T14:57:35.815Z,5.18
2022-12-28T15:00:28.536Z,5.19
2022-12-28T15:02:57.556Z,5.23
2022-12-28T15:05:39.986Z,5.21
2022-12-28T15:08:08.754Z,5.21
2022-12-28T15:10:47.999Z,5.25
2022-12-28T15:13:16.950Z,5.26
2022-12-28T15:15:46.057Z,5.28
2022-12-28T15:18:13.584Z,5.33
2022-12-28T15:20:41.006Z,5.27
2022-12-28T15:23:08.631Z,5.25
2022-12-28T15:25:36.446Z,5.27
2022-12-28T15:28:04.205Z,5.27
2022-12-28T15:30:32.014Z,5.22
2022-12-28T15:32:59.659Z,5.25
2022-12-28T15:35:27.323Z,5.27
2022-12-28T15:37:54.871Z,5.29
2022-12-28T15:40:22.289Z,5.27
2022-12-28T15:42:49.846Z,5.31
2022-12-28T15:45:18.228Z,5.37
2022-12-28T15:47:45.875Z,5.36
2022-12-28T15:50:13.501Z,5.36
2022-12-28T15:52:41.075Z,5.35
2022-12-28T15:55:08.996Z,5.47
2022-12-28T15:57:36.580Z,5.60
2022-12-28T16:00:05.220Z,5.74
2022-12-28T16:02:33.592Z,5.87
2022-12-28T16:05:01.221Z,5.99
2022-12-28T16:07:28.722Z,6.03
2022-12-28T16:09:56.208Z,6.07
2022-12-28T16:12:23.730Z,6.10
2022-12-28T16:14:51.148Z,6.14
2022-12-28T16:17:18.740Z,6.17
2022-12-28T16:19:46.188Z,6.18
2022-12-28T16:22:13.730Z,6.15
2022-12-28T16:24:41.121Z,6.13
2022-12-28T16:27:09.748Z,6.12
2022-12-28T16:29:37.346Z,6.13
2022-12-28T16:32:05.318Z,6.18
2022-12-28T16:34:32.924Z,6.13
2022-12-28T16:37:00.511Z,6.16
2022-12-28T16:39:29.114Z,6.16
2022-12-28T16:41:57.688Z,6.19
2022-12-28T16:44:27.484Z,6.20
2022-12-28T16:46:58.472Z,6.19
2022-12-28T16:49:27.159Z,6.20
2022-12-28T16:51:54.752Z,6.23
2022-12-28T16:54:24.084Z,6.28
2022-12-28T16:56:53.003Z,6.31
2022-12-28T16:59:24.639Z,6.33
2022-12-28T17:01:53.706Z,6.30
2022-12-28T17:04:22.210Z,6.41
2022-12-28T17:06:51.226Z,6.42
2022-12-28T17:09:19.705Z,6.48
2022-12-28T17:11:50.939Z,6.48
2022-12-28T17:14:42.031Z,6.45
2022-12-28T17:17:07.535Z,6.42
2022-12-28T17:19:35.823Z,6.39
2022-12-28T17:22:04.580Z,6.49
2022-12-28T17:24:32.028Z,6.58
2022-12-28T17:27:06.839Z,6.60
2022-12-28T17:29:37.278Z,6.64
2022-12-28T17:32:06.112Z,6.70
2022-12-28T17:34:33.739Z,6.79
2022-12-28T17:37:01.246Z,6.80
2022-12-28T17:39:31.049Z,6.85
2022-12-28T17:42:00.717Z,6.90
2022-12-28T17:44:28.154Z,6.89
2022-12-28T17:46:55.673Z,6.94
2022-12-28T17:49:23.079Z,6.90
2022-12-28T17:51:50.644Z,6.89
2022-12-28T17:54:18.123Z,6.86
2022-12-28T17:56:45.689Z,6.95
2022-12-28T17:59:17.132Z,6.89
2022-12-28T18:01:44.897Z,6.89
2022-12-28T18:04:12.552Z,6.85
2022-12-28T18:06:40.182Z,6.88
2022-12-28T18:09:07.572Z,6.90
2022-12-28T18:11:35.113Z,6.91
2022-12-28T18:14:02.611Z,6.88
2022-12-28T18:16:30.216Z,6.87
2022-12-28T18:18:57.772Z,6.92
2022-12-28T18:21:25.245Z,6.89
2022-12-28T18:23:53.208Z,6.84
2022-12-28T18:26:23.423Z,6.84
2022-12-28T18:28:50.889Z,6.83
2022-12-28T18:31:18.630Z,6.84
2022-12-28T18:33:46.309Z,6.82
2022-12-28T18:36:17.832Z,6.84
2022-12-28T18:38:47.261Z,6.81
2022-12-28T18:41:17.826Z,6.79
2022-12-28T18:43:45.458Z,6.71
2022-12-28T18:46:13.255Z,6.64
2022-12-28T18:48:41.754Z,6.70
2022-12-28T18:51:11.568Z,6.63
2022-12-28T18:53:40.179Z,6.62
2022-12-28T18:56:12.888Z,6.60
2022-12-28T18:58:41.831Z,6.66
2022-12-28T19:01:32.983Z,6.63
2022-12-28T19:04:01.913Z,6.60
2022-12-28T19:06:30.414Z,6.57
2022-12-28T19:09:01.224Z,6.57
2022-12-28T19:11:29.177Z,6.57
2022-12-28T19:13:57.271Z,6.62
2022-12-28T19:16:31.128Z,6.68
2022-12-28T19:18:59.597Z,6.64
2022-12-28T19:21:35.317Z,6.61
2022-12-28T19:24:10.527Z,6.57
2022-12-28T19:26:38.185Z,6.53
2022-12-28T19:29:05.973Z,6.50
2022-12-28T19:31:35.026Z,6.49
2022-12-28T19:34:02.587Z,6.48
2022-12-28T19:36:30.288Z,6.51
2022-12-28T19:38:58.297Z,6.46
2022-12-28T19:41:26.584Z,6.40
2022-12-28T19:43:54.112Z,6.46
2022-12-28T19:46:31.523Z,6.33
2022-12-28T19:49:01.625Z,6.32
2022-12-28T19:51:31.709Z,6.33
2022-12-28T19:54:01.267Z,6.31
2022-12-28T19:56:28.920Z,6.30
2022-12-28T19:59:04.946Z,6.29
2022-12-28T20:01:34.948Z,6.23
2022-12-28T20:04:07.381Z,6.14
2022-12-28T20:06:40.430Z,6.15
2022-12-28T20:09:07.878Z,6.14
2022-12-28T20:11:35.830Z,6.11
2022-12-28T20:14:04.517Z,6.15
2022-12-28T20:16:33.859Z,6.18
2022-12-28T20:19:01.933Z,6.15
2022-12-28T20:21:29.516Z,6.16
2022-12-28T20:23:57.011Z,6.18
2022-12-28T20:26:25.207Z,6.27
2022-12-28T20:28:52.921Z,6.27
2022-12-28T20:31:20.570Z,6.28
2022-12-28T20:33:48.419Z,6.28
2022-12-28T20:36:24.329Z,6.26
2022-12-28T20:38:53.659Z,6.24
2022-12-28T20:41:50.851Z,6.22
2022-12-28T20:44:26.960Z,6.27
2022-12-28T20:46:55.742Z,6.29
2022-12-28T20:49:25.225Z,6.26
2022-12-28T20:51:53.539Z,6.28
2022-12-28T20:54:21.755Z,6.26
2022-12-28T20:56:54.810Z,6.34
2022-12-28T20:59:25.206Z,6.32
2022-12-28T21:01:53.297Z,6.28
2022-12-28T21:04:22.298Z,6.30
2022-12-28T21:06:49.792Z,6.41
2022-12-28T21:09:17.350Z,6.40
2022-12-28T21:11:44.751Z,6.35
2022-12-28T21:14:12.347Z,6.36
2022-12-28T21:16:39.787Z,6.36
2022-12-28T21:19:07.342Z,6.29
2022-12-28T21:21:34.760Z,6.22
2022-12-28T21:24:03.312Z,6.27
2022-12-28T21:26:30.841Z,6.24
2022-12-28T21:28:59.205Z,6.25
2022-12-28T21:31:26.760Z,6.28
2022-12-28T21:33:56.183Z,6.30
2022-12-28T21:36:23.666Z,6.31
2022-12-28T21:38:51.220Z,6.35
2022-12-28T21:41:39.874Z,6.41
2022-12-28T21:44:12.005Z,6.48
2022-12-28T21:46:39.766Z,6.45
2022-12-28T21:49:08.092Z,6.48
2022-12-28T21:51:36.249Z,6.51
2022-12-28T21:54:33.676Z,6.57
2022-12-28T21:57:01.294Z,6.59
2022-12-28T21:59:28.752Z,6.53
2022-12-28T22:02:15.005Z,6.57
2022-12-28T22:05:03.291Z,6.57
2022-12-28T22:07:32.091Z,6.52
2022-12-28T22:10:18.147Z,6.48
2022-12-28T22:12:45.700Z,6.47
2022-12-28T22:15:40.145Z,6.39
2022-12-28T22:21:15.122Z,6.34
2022-12-28T22:23:42.639Z,6.35
2022-12-28T22:26:10.204Z,6.38
2022-12-28T22:28:37.701Z,6.38
2022-12-28T22:31:06.750Z,6.40
2022-12-28T22:33:34.500Z,6.37
2022-12-28T22:36:19.082Z,6.39
2022-12-28T22:38:46.818Z,6.33
2022-12-28T22:41:14.612Z,6.34
2022-12-28T22:43:42.272Z,6.28
2022-12-28T22:46:11.933Z,6.20
2022-12-28T22:48:39.596Z,6.22
2022-12-28T22:51:09.647Z,6.20
2022-12-28T22:53:37.513Z,6.17
2022-12-28T22:56:08.200Z,6.22
2022-12-28T22:58:35.825Z,6.16
2022-12-28T23:01:10.175Z,6.19
2022-12-28T23:03:38.888Z,6.07
2022-12-28T23:06:07.427Z,6.08
2022-12-28T23:08:35.429Z,6.11
2022-12-28T23:11:05.875Z,6.11
2022-12-28T23:13:33.619Z,6.11
2022-12-28T23:16:04.441Z,6.15
2022-12-28T23:18:53.722Z,6.14
2022-12-28T23:21:42.024Z,6.13
2022-12-28T23:24:31.043Z,6.18
2022-12-28T23:27:18.624Z,6.20
2022-12-28T23:29:46.464Z,6.17
2022-12-28T23:32:13.943Z,6.22
2022-12-28T23:34:41.547Z,6.25
2022-12-28T23:37:08.976Z,6.35
2022-12-28T23:39:36.568Z,6.41
2022-12-28T23:42:04.029Z,6.52
2022-12-28T23:44:31.519Z,6.60
2022-12-28T23:46:59.844Z,6.62
2022-12-28T23:49:27.524Z,6.65
2022-12-28T23:51:55.146Z,6.73
2022-12-28T23:54:22.618Z,6.74
2022-12-28T23:56:50.113Z,6.80
2022-12-28T23:59:17.636Z,6.83
